createdAt,value
2023-08-21T00:01:31.501Z,101721.66
2023-08-21T00:03:58.131Z,101733.13
2023-08-21T00:06:24.633Z,101715.19
2023-08-21T00:08:51.166Z,101712.69
2023-08-21T00:11:17.830Z,101717.38
2023-08-21T00:13:45.880Z,101712.22
2023-08-21T00:16:12.629Z,101715.72
2023-08-21T00:18:39.273Z,101722.84
2023-08-21T00:21:06.071Z,101731.66
2023-08-21T00:23:32.877Z,101725.00
2023-08-21T00:25:59.425Z,101721.34
2023-08-21T00:28:26.017Z,101693.91
2023-08-21T00:30:52.601Z,101712.50
2023-08-21T00:33:19.187Z,101716.66
2023-08-21T00:35:45.841Z,101710.97
2023-08-21T00:38:12.697Z,101707.81
2023-08-21T00:40:39.315Z,101715.94
2023-08-21T00:43:06.117Z,101709.28
2023-08-21T00:45:32.688Z,101709.25
2023-08-21T00:47:59.447Z,101719.72
2023-08-21T00:50:26.150Z,101710.25
2023-08-21T00:52:52.863Z,101706.38
2023-08-21T00:55:19.640Z,101698.22
2023-08-21T00:57:46.948Z,101699.53
2023-08-21T01:00:14.646Z,101699.47
2023-08-21T01:02:44.155Z,101706.94
2023-08-21T01:05:12.809Z,101698.94
2023-08-21T01:07:51.093Z,101695.06
2023-08-21T01:10:31.087Z,101709.31
2023-08-21T01:13:32.883Z,101716.44
2023-08-21T01:15:59.895Z,101722.75
2023-08-21T01:18:29.246Z,101725.22
2023-08-21T01:20:56.851Z,101717.59
2023-08-21T01:23:48.587Z,101718.44
2023-08-21T01:26:15.166Z,101729.72
2023-08-21T01:28:41.773Z,101730.22
2023-08-21T01:31:14.953Z,101721.56
2023-08-21T01:33:52.018Z,101725.06
2023-08-21T01:36:19.205Z,101729.03
2023-08-21T01:38:46.193Z,101722.50
2023-08-21T01:41:12.848Z,101726.16
2023-08-21T01:43:39.494Z,101717.69
2023-08-21T01:46:06.098Z,101718.53
2023-08-21T01:48:32.648Z,101723.69
2023-08-21T01:51:02.331Z,101718.19
2023-08-21T01:53:28.938Z,101717.53
2023-08-21T01:55:55.521Z,101719.50
2023-08-21T01:58:22.079Z,101723.75
2023-08-21T02:00:49.204Z,101707.81
2023-08-21T02:03:16.041Z,101721.25
2023-08-21T02:05:42.686Z,101715.59
2023-08-21T02:08:13.432Z,101712.78
2023-08-21T02:10:53.997Z,101716.41
2023-08-21T02:13:21.197Z,101718.72
2023-08-21T02:15:47.956Z,101713.88
2023-08-21T02:18:14.791Z,101712.50
2023-08-21T02:20:41.473Z,101699.72
2023-08-21T02:23:08.006Z,101708.06
2023-08-21T02:25:34.534Z,101706.22
2023-08-21T02:28:01.247Z,101709.19
2023-08-21T02:30:29.095Z,101705.03
2023-08-21T02:32:55.856Z,101699.06
2023-08-21T02:35:22.459Z,101702.84
2023-08-21T02:37:49.083Z,101704.63
2023-08-21T02:40:15.656Z,101698.50
2023-08-21T02:42:42.209Z,101695.44
2023-08-21T02:45:09.661Z,101707.28
2023-08-21T02:47:38.582Z,101701.03
2023-08-21T02:50:06.526Z,101697.53
2023-08-21T02:52:34.332Z,101689.66
2023-08-21T02:55:01.582Z,101705.91
2023-08-21T02:57:28.923Z,101695.91
2023-08-21T02:59:56.183Z,101700.94
2023-08-21T03:02:23.449Z,101702.91
2023-08-21T03:04:50.501Z,101694.25
2023-08-21T03:07:17.153Z,101703.84
2023-08-21T03:09:43.790Z,101696.75
2023-08-21T03:12:10.324Z,101693.25
2023-08-21T03:14:36.863Z,101693.25
2023-08-21T03:17:03.361Z,101701.53
2023-08-21T03:19:29.931Z,101696.38
2023-08-21T03:21:56.498Z,101697.22
2023-08-21T03:24:23.054Z,101678.47
2023-08-21T03:26:49.594Z,101673.75
2023-08-21T03:29:16.110Z,101696.81
2023-08-21T03:31:42.749Z,101690.19
2023-08-21T03:34:09.700Z,101694.94
2023-08-21T03:36:38.197Z,101686.63
2023-08-21T03:39:06.861Z,101691.22
2023-08-21T03:41:33.571Z,101694.06
2023-08-21T03:44:00.087Z,101694.06
2023-08-21T03:46:26.710Z,101683.47
2023-08-21T03:48:53.375Z,101680.44
2023-08-21T03:51:19.941Z,101685.03
2023-08-21T03:53:46.566Z,101686.03
2023-08-21T03:56:13.126Z,101682.00
2023-08-21T03:58:39.669Z,101684.66
2023-08-21T04:01:06.210Z,101677.28
2023-08-21T04:03:32.757Z,101695.91
2023-08-21T04:06:00.054Z,101679.00
2023-08-21T04:08:26.576Z,101687.22
2023-08-21T04:11:00.184Z,101694.34
2023-08-21T04:13:27.143Z,101700.59
2023-08-21T04:15:56.891Z,101694.78
2023-08-21T04:18:38.620Z,101690.88
2023-08-21T04:21:07.725Z,101702.47
2023-08-21T04:23:34.397Z,101705.28
2023-08-21T04:26:04.626Z,101703.31
2023-08-21T04:28:31.563Z,101693.59
2023-08-21T04:31:01.548Z,101704.28
2023-08-21T04:33:37.705Z,101707.06
2023-08-21T04:36:04.578Z,101708.59
2023-08-21T04:38:31.199Z,101715.84
2023-08-21T04:41:09.458Z,101716.84
2023-08-21T04:43:36.154Z,101698.06
2023-08-21T04:46:02.804Z,101703.34
2023-08-21T04:48:29.409Z,101705.53
2023-08-21T04:50:56.137Z,101704.41
2023-08-21T04:53:22.744Z,101701.09
2023-08-21T04:55:49.352Z,101707.06
2023-08-21T04:58:16.013Z,101710.56
2023-08-21T05:00:42.567Z,101695.03
2023-08-21T05:03:12.005Z,101712.38
2023-08-21T05:05:38.572Z,101713.22
2023-08-21T05:08:05.366Z,101716.66
2023-08-21T05:10:31.979Z,101728.47
2023-08-21T05:12:58.930Z,101723.88
2023-08-21T05:15:25.888Z,101707.91
2023-08-21T05:17:52.467Z,101728.56
2023-08-21T05:20:19.328Z,101726.31
2023-08-21T05:22:45.900Z,101718.38
2023-08-21T05:25:12.466Z,101728.91
2023-08-21T05:27:39.092Z,101728.75
2023-08-21T05:30:07.106Z,101720.34
2023-08-21T05:32:33.774Z,101737.59
2023-08-21T05:35:00.427Z,101731.03
2023-08-21T05:37:28.138Z,101741.50
2023-08-21T05:39:54.887Z,101742.47
2023-08-21T05:42:21.524Z,101740.91
2023-08-21T05:44:48.148Z,101736.78
2023-08-21T05:47:14.697Z,101717.13
2023-08-21T05:49:41.348Z,101751.00
2023-08-21T05:52:07.907Z,101748.41
2023-08-21T05:54:34.541Z,101751.00
2023-08-21T05:57:01.137Z,101740.72
2023-08-21T05:59:29.931Z,101736.88
2023-08-21T06:01:56.564Z,101746.13
2023-08-21T06:04:23.844Z,101744.50
2023-08-21T06:06:50.443Z,101742.78
2023-08-21T06:09:18.626Z,101751.47
2023-08-21T06:11:45.326Z,101745.03
2023-08-21T06:14:11.852Z,101746.50
2023-08-21T06:16:38.550Z,101754.72
2023-08-21T06:19:05.187Z,101760.72
2023-08-21T06:21:31.756Z,101756.22
2023-08-21T06:23:58.315Z,101752.06
2023-08-21T06:26:24.881Z,101762.75
2023-08-21T06:28:52.729Z,101763.97
2023-08-21T06:31:19.432Z,101754.69
2023-08-21T06:33:46.081Z,101754.06
2023-08-21T06:36:12.611Z,101757.50
2023-08-21T06:38:39.159Z,101764.88
2023-08-21T06:41:09.681Z,101766.91
2023-08-21T06:43:38.063Z,101766.31
2023-08-21T06:46:04.668Z,101764.78
2023-08-21T06:48:31.301Z,101759.53
2023-08-21T06:50:57.924Z,101763.13
2023-08-21T06:53:24.493Z,101765.47
2023-08-21T06:55:51.033Z,101763.16
2023-08-21T06:58:17.567Z,101767.31
2023-08-21T07:00:44.168Z,101777.63
2023-08-21T07:03:10.814Z,101770.56
2023-08-21T07:05:38.358Z,101759.66
2023-08-21T07:08:06.698Z,101771.59
2023-08-21T07:10:39.796Z,101787.88
2023-08-21T07:13:06.382Z,101775.31
2023-08-21T07:15:33.007Z,101781.09
2023-08-21T07:17:59.618Z,101785.09
2023-08-21T07:20:26.246Z,101790.13
2023-08-21T07:22:52.776Z,101792.31
2023-08-21T07:25:20.328Z,101786.72
2023-08-21T07:27:47.578Z,101787.50
2023-08-21T07:30:14.257Z,101784.81
2023-08-21T07:32:41.049Z,101789.28
2023-08-21T07:35:08.193Z,101784.31
2023-08-21T07:37:34.685Z,101783.00
2023-08-21T07:40:01.343Z,101796.78
2023-08-21T07:42:27.878Z,101788.16
2023-08-21T07:44:54.463Z,101788.03
2023-08-21T07:47:21.032Z,101782.47
2023-08-21T07:49:47.577Z,101790.63
2023-08-21T07:52:14.142Z,101790.72
2023-08-21T07:54:40.623Z,101788.16
2023-08-21T07:57:07.806Z,101790.56
2023-08-21T07:59:34.370Z,101791.84
2023-08-21T08:02:01.762Z,101789.16
2023-08-21T08:04:28.357Z,101791.47
2023-08-21T08:06:55.034Z,101801.56
2023-08-21T08:09:21.550Z,101802.22
2023-08-21T08:11:48.135Z,101791.22
2023-08-21T08:14:15.059Z,101794.69
2023-08-21T08:16:41.688Z,101781.59
2023-08-21T08:19:09.000Z,101772.56
2023-08-21T08:21:35.545Z,101780.19
2023-08-21T08:24:02.059Z,101775.63
2023-08-21T08:26:28.619Z,101779.81
2023-08-21T08:28:55.105Z,101773.50
2023-08-21T08:31:21.883Z,101771.84
2023-08-21T08:33:49.304Z,101780.66
2023-08-21T08:36:15.906Z,101782.66
2023-08-21T08:38:42.422Z,101782.81
2023-08-21T08:41:15.750Z,101785.25
2023-08-21T08:43:42.321Z,101785.81
2023-08-21T08:46:10.646Z,101784.72
2023-08-21T08:48:38.636Z,101798.47
2023-08-21T08:51:05.419Z,101792.81
2023-08-21T08:53:32.110Z,101787.28
2023-08-21T08:55:59.341Z,101794.72
2023-08-21T08:58:25.970Z,101795.94
2023-08-21T09:00:52.583Z,101790.88
2023-08-21T09:03:19.269Z,101786.09
2023-08-21T09:05:46.110Z,101798.16
2023-08-21T09:08:13.766Z,101789.94
2023-08-21T09:10:41.579Z,101793.69
2023-08-21T09:13:20.388Z,101799.66
2023-08-21T09:15:49.290Z,101800.81
2023-08-21T09:18:16.931Z,101800.22
2023-08-21T09:20:43.871Z,101794.03
2023-08-21T09:23:15.515Z,101794.66
2023-08-21T09:25:42.412Z,101794.03
2023-08-21T09:28:09.856Z,101800.88
2023-08-21T09:30:46.173Z,101794.84
2023-08-21T09:33:12.979Z,101784.81
2023-08-21T09:35:40.721Z,101790.09
2023-08-21T09:38:08.273Z,101780.88
2023-08-21T09:40:34.907Z,101791.00
2023-08-21T09:43:04.970Z,101784.72
2023-08-21T09:45:31.802Z,101789.03
2023-08-21T09:47:59.771Z,101780.31
2023-08-21T09:50:29.665Z,101783.09
2023-08-21T09:52:58.170Z,101780.16
2023-08-21T09:55:26.423Z,101776.31
2023-08-21T09:57:59.650Z,101777.03
2023-08-21T10:00:35.925Z,101778.69
2023-08-21T10:03:05.340Z,101776.69
2023-08-21T10:05:32.999Z,101772.91
2023-08-21T10:08:03.930Z,101771.59
2023-08-21T10:10:38.598Z,101761.75
2023-08-21T10:13:06.490Z,101763.19
2023-08-21T10:15:34.951Z,101764.09
2023-08-21T10:18:26.036Z,101766.09
2023-08-21T10:20:53.988Z,101769.97
2023-08-21T10:23:31.548Z,101766.59
2023-08-21T10:26:02.055Z,101753.50
2023-08-21T10:28:49.284Z,101758.72
2023-08-21T10:31:44.063Z,101763.00
2023-08-21T10:34:14.895Z,101772.19
2023-08-21T10:36:44.807Z,101766.59
2023-08-21T10:39:19.477Z,101775.16
2023-08-21T10:41:58.729Z,101765.75
2023-08-21T10:44:36.589Z,101756.53
2023-08-21T10:47:41.681Z,101772.44
2023-08-21T10:50:09.834Z,101766.19
2023-08-21T10:52:39.360Z,101758.78
2023-08-21T10:55:06.691Z,101769.09
2023-08-21T10:57:34.402Z,101769.38
2023-08-21T11:00:10.458Z,101758.69
2023-08-21T11:02:38.632Z,101758.81
2023-08-21T11:05:06.224Z,101766.50
2023-08-21T11:07:45.059Z,101770.06
2023-08-21T11:10:15.925Z,101752.09
2023-08-21T11:13:00.463Z,101756.41
2023-08-21T11:15:28.881Z,101772.34
2023-08-21T11:18:02.824Z,101777.03
2023-08-21T11:20:35.420Z,101756.41
2023-08-21T11:23:06.414Z,101776.72
2023-08-21T11:25:34.055Z,101774.09
2023-08-21T11:28:03.740Z,101770.16
2023-08-21T11:30:32.110Z,101772.88
2023-08-21T11:33:11.681Z,101768.53
2023-08-21T11:35:39.440Z,101770.06
2023-08-21T11:38:10.260Z,101771.78
2023-08-21T11:40:37.162Z,101770.28
2023-08-21T11:43:06.335Z,101778.69
2023-08-21T11:45:45.373Z,101774.28
2023-08-21T11:48:21.219Z,101769.88
2023-08-21T11:50:49.468Z,101774.06
2023-08-21T11:53:16.019Z,101777.31
2023-08-21T11:55:42.625Z,101770.06
2023-08-21T11:58:09.228Z,101769.88
2023-08-21T12:00:35.803Z,101763.13
2023-08-21T12:03:04.183Z,101759.69
2023-08-21T12:05:31.110Z,101761.22
2023-08-21T12:07:57.765Z,101764.69
2023-08-21T12:10:26.111Z,101753.53
2023-08-21T12:12:52.764Z,101746.03
2023-08-21T12:15:20.214Z,101753.91
2023-08-21T12:17:46.842Z,101759.34
2023-08-21T12:20:13.529Z,101742.03
2023-08-21T12:22:40.602Z,101756.22
2023-08-21T12:25:08.436Z,101755.88
2023-08-21T12:27:35.053Z,101755.88
2023-08-21T12:30:01.673Z,101739.78
2023-08-21T12:32:28.319Z,101745.28
2023-08-21T12:34:54.897Z,101743.31
2023-08-21T12:37:21.561Z,101761.50
2023-08-21T12:39:48.152Z,101745.56
2023-08-21T12:42:14.763Z,101738.53
2023-08-21T12:44:41.663Z,101749.34
2023-08-21T12:47:08.236Z,101737.69
2023-08-21T12:49:36.152Z,101741.22
2023-08-21T12:52:03.250Z,101744.22
2023-08-21T12:54:29.833Z,101738.38
2023-08-21T12:56:57.776Z,101741.28
2023-08-21T12:59:24.386Z,101734.94
2023-08-21T13:01:50.941Z,101749.38
2023-08-21T13:04:17.599Z,101748.81
2023-08-21T13:06:44.195Z,101745.13
2023-08-21T13:09:10.776Z,101742.22
2023-08-21T13:11:37.311Z,101736.03
2023-08-21T13:14:04.529Z,101733.44
2023-08-21T13:16:31.097Z,101744.09
2023-08-21T13:18:57.691Z,101748.91
2023-08-21T13:21:24.336Z,101745.03
2023-08-21T13:23:50.958Z,101742.91
2023-08-21T13:26:17.624Z,101730.09
2023-08-21T13:28:44.277Z,101741.75
2023-08-21T13:31:12.253Z,101735.38
2023-08-21T13:33:51.184Z,101745.75
2023-08-21T13:36:19.444Z,101741.53
2023-08-21T13:38:45.958Z,101733.25
2023-08-21T13:41:12.519Z,101736.44
2023-08-21T13:43:41.339Z,101731.03
2023-08-21T13:46:08.675Z,101730.63
2023-08-21T13:48:35.484Z,101720.13
2023-08-21T13:51:02.181Z,101728.75
2023-08-21T13:53:28.797Z,101720.78
2023-08-21T13:55:55.320Z,101721.94
2023-08-21T13:58:22.437Z,101727.59
2023-08-21T14:00:49.064Z,101722.19
2023-08-21T14:03:15.654Z,101723.88
2023-08-21T14:05:42.205Z,101712.56
2023-08-21T14:08:09.301Z,101718.56
2023-08-21T14:10:36.633Z,101708.56
2023-08-21T14:13:04.800Z,101697.75
2023-08-21T14:15:31.588Z,101694.00
2023-08-21T14:17:58.214Z,101694.81
2023-08-21T14:20:24.826Z,101692.72
2023-08-21T14:22:51.507Z,101697.09
2023-08-21T14:25:18.755Z,101697.84
2023-08-21T14:27:45.291Z,101694.16
2023-08-21T14:30:12.261Z,101697.03
2023-08-21T14:32:39.085Z,101698.19
2023-08-21T14:35:09.430Z,101707.75
2023-08-21T14:37:37.291Z,101695.94
2023-08-21T14:40:08.884Z,101702.25
2023-08-21T14:42:35.677Z,101690.78
2023-08-21T14:45:04.497Z,101685.47
2023-08-21T14:47:31.254Z,101688.31
2023-08-21T14:49:58.450Z,101687.00
2023-08-21T14:52:25.195Z,101685.50
2023-08-21T14:54:52.347Z,101681.97
2023-08-21T14:57:18.853Z,101675.03
2023-08-21T14:59:45.425Z,101677.72
2023-08-21T15:02:12.198Z,101674.44
2023-08-21T15:04:38.862Z,101670.09
2023-08-21T15:07:05.384Z,101667.97
2023-08-21T15:09:31.934Z,101683.00
2023-08-21T15:11:58.411Z,101672.31
2023-08-21T15:14:24.940Z,101662.22
2023-08-21T15:16:53.561Z,101663.25
2023-08-21T15:19:23.634Z,101659.34
2023-08-21T15:21:50.150Z,101654.16
2023-08-21T15:24:16.689Z,101658.28
2023-08-21T15:26:43.218Z,101656.97
2023-08-21T15:29:09.720Z,101658.88
2023-08-21T15:31:36.294Z,101647.72
2023-08-21T15:34:03.846Z,101656.28
2023-08-21T15:36:33.085Z,101659.22
2023-08-21T15:38:59.626Z,101654.53
2023-08-21T15:41:26.164Z,101646.41
2023-08-21T15:43:53.102Z,101642.56
2023-08-21T15:46:19.740Z,101642.31
2023-08-21T15:48:46.342Z,101653.19
2023-08-21T15:51:12.848Z,101652.94
2023-08-21T15:53:39.477Z,101648.50
2023-08-21T15:56:06.181Z,101642.41
2023-08-21T15:58:32.705Z,101643.59
2023-08-21T16:00:59.479Z,101625.78
2023-08-21T16:03:26.145Z,101639.38
2023-08-21T16:05:52.984Z,101641.34
2023-08-21T16:08:20.590Z,101627.03
2023-08-21T16:10:47.119Z,101635.72
2023-08-21T16:13:13.622Z,101634.16
2023-08-21T16:15:40.376Z,101629.44
2023-08-21T16:18:07.521Z,101614.47
2023-08-21T16:20:34.206Z,101630.53
2023-08-21T16:23:00.818Z,101625.94
2023-08-21T16:25:27.394Z,101619.97
2023-08-21T16:27:53.933Z,101616.88
2023-08-21T16:30:20.652Z,101620.41
2023-08-21T16:32:47.379Z,101626.06
2023-08-21T16:35:14.013Z,101626.75
2023-08-21T16:37:42.546Z,101622.09
2023-08-21T16:40:10.552Z,101612.69
2023-08-21T16:42:37.370Z,101610.00
2023-08-21T16:45:04.892Z,101605.66
2023-08-21T16:47:31.583Z,101606.50
2023-08-21T16:50:01.954Z,101600.16
2023-08-21T16:52:30.042Z,101601.63
2023-08-21T16:54:58.058Z,101593.56
2023-08-21T16:57:24.660Z,101596.63
2023-08-21T16:59:51.234Z,101591.25
2023-08-21T17:02:21.934Z,101585.03
2023-08-21T17:04:49.643Z,101584.31
2023-08-21T17:07:16.612Z,101580.13
2023-08-21T17:09:47.444Z,101577.72
2023-08-21T17:12:15.306Z,101582.34
2023-08-21T17:14:41.857Z,101582.22
2023-08-21T17:17:08.370Z,101580.88
2023-08-21T17:19:34.897Z,101585.72
2023-08-21T17:22:01.452Z,101584.78
2023-08-21T17:24:27.978Z,101585.31
2023-08-21T17:26:54.508Z,101576.28
2023-08-21T17:29:21.115Z,101590.34
2023-08-21T17:31:47.605Z,101566.44
2023-08-21T17:34:14.121Z,101593.28
2023-08-21T17:36:40.655Z,101590.22
2023-08-21T17:39:07.178Z,101574.09
2023-08-21T17:41:33.817Z,101602.31
2023-08-21T17:44:00.362Z,101602.78
2023-08-21T17:46:26.914Z,101601.97
2023-08-21T17:48:53.518Z,101594.38
2023-08-21T17:51:20.304Z,101598.34
2023-08-21T17:53:46.866Z,101596.66
2023-08-21T17:56:13.485Z,101591.78
2023-08-21T17:58:40.204Z,101593.84
2023-08-21T18:01:06.816Z,101596.78
2023-08-21T18:03:33.417Z,101589.84
2023-08-21T18:06:01.190Z,101598.94
2023-08-21T18:08:28.210Z,101590.53
2023-08-21T18:10:55.288Z,101598.53
2023-08-21T18:13:21.891Z,101593.81
2023-08-21T18:15:52.077Z,101591.34
2023-08-21T18:18:18.755Z,101600.03
2023-08-21T18:20:55.735Z,101596.94
2023-08-21T18:23:26.830Z,101602.50
2023-08-21T18:25:54.515Z,101590.72
2023-08-21T18:28:26.449Z,101584.53
2023-08-21T18:30:55.832Z,101596.47
2023-08-21T18:33:23.377Z,101591.06
2023-08-21T18:35:51.389Z,101598.69
2023-08-21T18:38:18.666Z,101603.59
2023-08-21T18:40:45.299Z,101602.50
2023-08-21T18:43:11.818Z,101608.88
2023-08-21T18:45:38.530Z,101593.78
2023-08-21T18:48:06.518Z,101594.16
2023-08-21T18:50:42.789Z,101595.53
2023-08-21T18:53:10.561Z,101613.38
2023-08-21T18:55:39.624Z,101606.09
2023-08-21T18:58:06.502Z,101609.34
2023-08-21T19:00:33.140Z,101604.09
2023-08-21T19:03:00.815Z,101610.13
2023-08-21T19:05:27.608Z,101611.53
2023-08-21T19:07:54.179Z,101623.38
2023-08-21T19:10:21.109Z,101608.03
2023-08-21T19:12:47.912Z,101586.69
2023-08-21T19:15:15.928Z,101592.03
2023-08-21T19:17:43.334Z,101618.47
2023-08-21T19:20:10.770Z,101601.22
2023-08-21T19:22:37.690Z,101618.16
2023-08-21T19:25:05.137Z,101620.19
2023-08-21T19:27:32.029Z,101620.13
2023-08-21T19:29:58.951Z,101623.91
2023-08-21T19:32:25.761Z,101627.06
2023-08-21T19:34:53.557Z,101625.94
2023-08-21T19:37:22.199Z,101625.03
2023-08-21T19:39:49.728Z,101610.38
2023-08-21T19:42:16.372Z,101631.53
2023-08-21T19:44:43.607Z,101626.47
2023-08-21T19:47:10.205Z,101619.75
2023-08-21T19:49:37.642Z,101623.16
2023-08-21T19:52:05.259Z,101620.91
2023-08-21T19:54:31.847Z,101624.75
2023-08-21T19:56:58.529Z,101620.97
2023-08-21T19:59:27.614Z,101619.06
2023-08-21T20:01:54.153Z,101617.75
2023-08-21T20:04:20.684Z,101624.78
2023-08-21T20:06:47.217Z,101615.72
2023-08-21T20:09:14.284Z,101626.75
2023-08-21T20:11:41.246Z,101626.31
2023-08-21T20:14:07.743Z,101627.78
2023-08-21T20:16:34.409Z,101626.84
2023-08-21T20:19:01.659Z,101627.84
2023-08-21T20:21:30.115Z,101624.16
2023-08-21T20:23:58.266Z,101613.84
2023-08-21T20:26:25.846Z,101635.09
2023-08-21T20:28:52.405Z,101630.44
2023-08-21T20:31:18.988Z,101632.44
2023-08-21T20:33:45.646Z,101632.31
2023-08-21T20:36:12.250Z,101628.53
2023-08-21T20:38:38.772Z,101637.88
2023-08-21T20:41:06.477Z,101629.25
2023-08-21T20:43:34.736Z,101628.13
2023-08-21T20:46:03.759Z,101635.81
2023-08-21T20:48:30.309Z,101613.41
2023-08-21T20:50:58.166Z,101640.31
2023-08-21T20:53:26.316Z,101631.72
2023-08-21T20:55:54.394Z,101625.25
2023-08-21T20:58:21.010Z,101626.75
2023-08-21T21:00:47.968Z,101635.69
2023-08-21T21:03:15.468Z,101622.41
2023-08-21T21:05:42.487Z,101617.25
2023-08-21T21:08:09.116Z,101632.34
2023-08-21T21:10:36.139Z,101626.56
2023-08-21T21:13:03.862Z,101621.31
2023-08-21T21:15:30.926Z,101632.41
2023-08-21T21:17:58.106Z,101624.63
2023-08-21T21:20:25.429Z,101621.13
2023-08-21T21:22:51.900Z,101623.47
2023-08-21T21:25:18.423Z,101632.78
2023-08-21T21:27:45.064Z,101618.47
2023-08-21T21:30:11.870Z,101617.81
2023-08-21T21:32:38.563Z,101624.81
2023-08-21T21:35:05.602Z,101620.84
2023-08-21T21:37:34.268Z,101629.31
2023-08-21T21:40:00.941Z,101610.41
2023-08-21T21:42:29.105Z,101615.03
2023-08-21T21:44:55.768Z,101619.38
2023-08-21T21:47:22.422Z,101614.19
2023-08-21T21:49:48.917Z,101613.38
2023-08-21T21:52:15.445Z,101609.22
2023-08-21T21:54:42.173Z,101605.25
2023-08-21T21:57:08.733Z,101609.72
2023-08-21T21:59:35.271Z,101603.09
2023-08-21T22:02:01.877Z,101580.34
2023-08-21T22:04:28.464Z,101588.97
2023-08-21T22:06:55.000Z,101588.81
2023-08-21T22:09:21.681Z,101587.47
2023-08-21T22:11:48.282Z,101577.19
2023-08-21T22:14:16.355Z,101577.53
2023-08-21T22:16:42.901Z,101576.03
2023-08-21T22:19:09.494Z,101580.69
2023-08-21T22:21:36.036Z,101584.00
2023-08-21T22:24:02.528Z,101580.00
2023-08-21T22:26:29.226Z,101575.19
2023-08-21T22:28:55.747Z,101585.16
2023-08-21T22:31:31.957Z,101581.84
2023-08-21T22:34:06.882Z,101588.94
2023-08-21T22:36:33.416Z,101580.97
2023-08-21T22:38:59.923Z,101581.66
2023-08-21T22:41:26.421Z,101576.00
2023-08-21T22:43:52.947Z,101583.63
2023-08-21T22:46:19.558Z,101588.25
2023-08-21T22:48:46.168Z,101581.31
2023-08-21T22:51:12.824Z,101577.47
2023-08-21T22:53:39.624Z,101582.78
2023-08-21T22:56:06.143Z,101586.44
2023-08-21T22:58:32.696Z,101589.41
2023-08-21T23:00:59.815Z,101593.72
2023-08-21T23:03:26.871Z,101584.28
2023-08-21T23:05:57.154Z,101577.06
2023-08-21T23:08:28.148Z,101591.56
2023-08-21T23:10:55.049Z,101584.06
2023-08-21T23:13:21.698Z,101583.63
2023-08-21T23:15:49.638Z,101587.41
2023-08-21T23:18:19.632Z,101582.91
2023-08-21T23:20:58.501Z,101586.56
2023-08-21T23:23:25.092Z,101586.56
2023-08-21T23:25:55.895Z,101589.88
2023-08-21T23:28:22.685Z,101582.09
2023-08-21T23:30:49.234Z,101574.97
2023-08-21T23:33:15.863Z,101573.16
2023-08-21T23:35:42.493Z,101571.50
2023-08-21T23:38:09.033Z,101582.09
2023-08-21T23:40:37.711Z,101584.56
2023-08-21T23:43:08.170Z,101575.97
2023-08-21T23:45:35.844Z,101580.78
2023-08-21T23:48:03.559Z,101563.06
2023-08-21T23:50:30.804Z,101567.34
2023-08-21T23:52:58.426Z,101555.25
2023-08-21T23:55:25.011Z,101559.06
2023-08-21T23:57:52.040Z,101558.41
